createdAt,value
2023-03-12T00:00:10.756Z,6.70
2023-03-12T00:00:23.028Z,6.60
2023-03-12T00:00:33.869Z,6.50
2023-03-12T00:00:46.109Z,6.60
2023-03-12T00:00:56.861Z,6.60
2023-03-12T00:01:09.101Z,6.40
2023-03-12T00:01:19.916Z,6.80
2023-03-12T00:01:31.666Z,6.60
2023-03-12T00:01:43.374Z,6.50
2023-03-12T00:01:54.126Z,7.00
2023-03-12T00:02:07.078Z,7.60
2023-03-12T00:02:17.898Z,7.70
2023-03-12T00:02:28.667Z,7.30
2023-03-12T00:02:40.842Z,7.40
2023-03-12T00:02:53.866Z,7.10
2023-03-12T00:03:05.606Z,6.70
2023-03-12T00:03:18.879Z,6.60
2023-03-12T00:03:31.404Z,6.90
2023-03-12T00:03:43.922Z,7.20
2023-03-12T00:03:54.770Z,7.10
2023-03-12T00:04:06.579Z,7.00
2023-03-12T00:04:18.357Z,7.10
2023-03-12T00:04:30.834Z,6.90
2023-03-12T00:04:41.610Z,7.20
2023-03-12T00:04:52.397Z,6.90
2023-03-12T00:05:04.656Z,7.00
2023-03-12T00:05:17.678Z,6.60
2023-03-12T00:05:29.396Z,6.80
2023-03-12T00:05:40.182Z,7.30
2023-03-12T00:05:53.426Z,7.70
2023-03-12T00:06:10.561Z,7.40
2023-03-12T00:06:20.892Z,7.50
2023-03-12T00:06:32.617Z,7.20
2023-03-12T00:06:43.396Z,6.80
2023-03-12T00:06:54.162Z,6.40
2023-03-12T00:07:06.694Z,6.30
2023-03-12T00:07:18.528Z,6.50
2023-03-12T00:07:30.339Z,7.00
2023-03-12T00:07:41.126Z,7.90
2023-03-12T00:07:51.925Z,7.30
2023-03-12T00:08:03.638Z,6.60
2023-03-12T00:08:17.393Z,6.40
2023-03-12T00:08:29.091Z,6.90
2023-03-12T00:08:40.807Z,7.00
2023-03-12T00:08:55.152Z,7.50
2023-03-12T00:09:07.955Z,7.50
2023-03-12T00:09:20.448Z,7.40
2023-03-12T00:09:33.648Z,7.40
2023-03-12T00:09:44.447Z,6.70
2023-03-12T00:09:57.683Z,7.50
2023-03-12T00:10:11.302Z,7.70
2023-03-12T00:10:24.057Z,7.50
2023-03-12T00:10:34.820Z,7.20
2023-03-12T00:10:48.044Z,6.90
2023-03-12T00:10:59.769Z,6.70
2023-03-12T00:11:11.485Z,7.00
2023-03-12T00:11:23.908Z,7.00
2023-03-12T00:11:34.690Z,7.10
2023-03-12T00:12:08.375Z,0.00
2023-03-12T00:12:20.844Z,6.70
2023-03-12T00:12:33.774Z,7.20
2023-03-12T00:12:46.213Z,7.10
2023-03-12T00:12:57.929Z,6.70
2023-03-12T00:13:08.713Z,7.40
2023-03-12T00:13:20.469Z,7.00
2023-03-12T00:13:32.201Z,6.80
2023-03-12T00:13:43.885Z,6.70
2023-03-12T00:13:54.643Z,6.60
2023-03-12T00:14:07.362Z,6.80
2023-03-12T00:14:18.135Z,6.90
2023-03-12T00:14:29.846Z,7.10
2023-03-12T00:14:42.618Z,7.50
2023-03-12T00:14:53.384Z,7.50
2023-03-12T00:15:04.132Z,7.40
2023-03-12T00:15:16.583Z,7.20
2023-03-12T00:15:27.393Z,7.10
2023-03-12T00:15:38.224Z,6.80
2023-03-12T00:15:49.958Z,6.90
2023-03-12T00:16:01.689Z,6.90
2023-03-12T00:16:14.305Z,6.80
2023-03-12T00:16:27.348Z,7.00
2023-03-12T00:16:39.158Z,7.60
2023-03-12T00:16:49.912Z,7.80
2023-03-12T00:17:00.708Z,7.50
2023-03-12T00:17:13.131Z,7.20
2023-03-12T00:17:24.906Z,6.80
2023-03-12T00:17:37.639Z,6.90
2023-03-12T00:17:50.095Z,6.80
2023-03-12T00:18:01.917Z,6.90
2023-03-12T00:18:14.615Z,6.80
2023-03-12T00:18:26.401Z,6.90
2023-03-12T00:18:37.203Z,6.80
2023-03-12T00:18:49.614Z,7.20
2023-03-12T00:19:01.338Z,7.10
2023-03-12T00:19:12.064Z,7.20
2023-03-12T00:19:23.812Z,7.20
2023-03-12T00:19:34.606Z,7.50
2023-03-12T00:19:47.043Z,7.50
2023-03-12T00:19:58.205Z,7.10
2023-03-12T00:20:12.452Z,6.90
2023-03-12T00:20:26.663Z,6.60
2023-03-12T00:20:39.192Z,6.80
2023-03-12T00:20:52.388Z,7.00
2023-03-12T00:21:04.148Z,6.80
2023-03-12T00:21:14.885Z,7.00
2023-03-12T00:21:25.732Z,7.50
2023-03-12T00:21:38.664Z,7.30
2023-03-12T00:21:51.876Z,7.00
2023-03-12T00:22:04.633Z,6.90
2023-03-12T00:22:17.076Z,7.00
2023-03-12T00:22:29.552Z,6.60
2023-03-12T00:22:42.025Z,6.60
2023-03-12T00:22:52.849Z,6.90
2023-03-12T00:23:05.262Z,6.70
2023-03-12T00:23:17.264Z,7.00
2023-03-12T00:23:28.006Z,6.60
2023-03-12T00:23:38.751Z,6.50
2023-03-12T00:23:49.543Z,6.10
2023-03-12T00:24:00.294Z,6.60
2023-03-12T00:24:11.092Z,6.40
2023-03-12T00:24:23.562Z,6.50
2023-03-12T00:24:35.974Z,7.20
2023-03-12T00:24:48.454Z,7.40
2023-03-12T00:25:00.408Z,6.70
2023-03-12T00:25:12.142Z,6.60
2023-03-12T00:25:22.901Z,6.70
2023-03-12T00:25:36.116Z,7.20
2023-03-12T00:25:47.048Z,7.70
2023-03-12T00:25:57.757Z,7.40
2023-03-12T00:26:09.479Z,6.90
2023-03-12T00:26:21.907Z,6.70
2023-03-12T00:26:35.176Z,6.90
2023-03-12T00:26:47.624Z,6.80
2023-03-12T00:27:00.854Z,6.70
2023-03-12T00:27:11.655Z,7.20
2023-03-12T00:27:24.147Z,7.10
2023-03-12T00:27:37.403Z,7.00
2023-03-12T00:27:48.226Z,6.70
2023-03-12T00:27:58.980Z,6.90
2023-03-12T00:28:10.764Z,6.90
2023-03-12T00:28:21.508Z,6.30
2023-03-12T00:28:32.482Z,6.40
2023-03-12T00:28:44.219Z,7.00
2023-03-12T00:28:55.005Z,7.00
2023-03-12T00:29:06.764Z,6.50
2023-03-12T00:29:18.972Z,6.60
2023-03-12T00:29:29.993Z,6.60
2023-03-12T00:29:40.765Z,6.50
2023-03-12T00:29:52.497Z,6.50
2023-03-12T00:30:03.285Z,6.60
2023-03-12T00:30:15.055Z,7.20
2023-03-12T00:30:26.037Z,7.10
2023-03-12T00:30:39.462Z,7.30
2023-03-12T00:30:50.293Z,7.40
2023-03-12T00:31:02.627Z,7.30
2023-03-12T00:31:13.410Z,7.60
2023-03-12T00:31:26.100Z,7.10
2023-03-12T00:31:36.875Z,7.00
2023-03-12T00:31:49.142Z,7.20
2023-03-12T00:32:01.092Z,6.90
2023-03-12T00:32:11.836Z,6.70
2023-03-12T00:32:23.609Z,6.50
2023-03-12T00:32:35.370Z,6.50
2023-03-12T00:32:48.339Z,6.40
2023-03-12T00:32:59.095Z,6.50
2023-03-12T00:33:09.853Z,6.60
2023-03-12T00:33:23.599Z,7.30
2023-03-12T00:33:36.308Z,7.40
2023-03-12T00:33:47.094Z,6.90
2023-03-12T00:33:58.836Z,7.10
2023-03-12T00:34:10.806Z,7.10
2023-03-12T00:34:23.247Z,7.90
2023-03-12T00:34:34.941Z,7.90
2023-03-12T00:34:46.640Z,8.00
2023-03-12T00:34:59.119Z,7.70
2023-03-12T00:35:10.858Z,7.60
2023-03-12T00:35:23.303Z,7.20
2023-03-12T00:35:35.032Z,6.80
2023-03-12T00:35:47.239Z,7.10
2023-03-12T00:35:58.104Z,7.50
2023-03-12T00:36:08.886Z,7.50
2023-03-12T00:36:21.164Z,7.30
2023-03-12T00:36:31.965Z,6.90
2023-03-12T00:36:42.690Z,7.00
2023-03-12T00:36:54.937Z,7.30
2023-03-12T00:37:05.766Z,7.80
2023-03-12T00:37:18.492Z,7.70
2023-03-12T00:37:29.269Z,7.60
2023-03-12T00:37:40.081Z,7.10
2023-03-12T00:37:52.805Z,7.30
2023-03-12T00:38:06.217Z,7.40
2023-03-12T00:38:19.370Z,7.70
2023-03-12T00:38:31.852Z,8.20
2023-03-12T00:38:43.599Z,7.90
2023-03-12T00:38:54.386Z,7.30
2023-03-12T00:39:06.215Z,7.10
2023-03-12T00:39:17.022Z,7.00
2023-03-12T00:39:27.811Z,7.30
2023-03-12T00:39:38.574Z,7.40
2023-03-12T00:39:51.791Z,7.00
2023-03-12T00:40:03.801Z,6.70
2023-03-12T00:40:17.001Z,7.00
2023-03-12T00:40:29.203Z,6.70
2023-03-12T00:40:41.656Z,6.60
2023-03-12T00:40:54.673Z,6.50
2023-03-12T00:41:07.726Z,7.50
2023-03-12T00:41:20.795Z,7.40
2023-03-12T00:41:32.741Z,6.90
2023-03-12T00:41:45.191Z,7.20
2023-03-12T00:41:56.932Z,7.30
2023-03-12T00:42:07.723Z,7.00
2023-03-12T00:42:20.716Z,7.50
2023-03-12T00:42:32.681Z,7.40
2023-03-12T00:43:07.085Z,0.00
2023-03-12T00:43:20.390Z,7.00
2023-03-12T00:43:31.132Z,6.90
2023-03-12T00:43:43.098Z,7.00
2023-03-12T00:43:53.868Z,6.80
2023-03-12T00:44:05.606Z,6.70
2023-03-12T00:44:18.809Z,7.10
2023-03-12T00:44:32.043Z,6.90
2023-03-12T00:44:42.789Z,7.10
2023-03-12T00:44:53.528Z,7.90
2023-03-12T00:45:05.202Z,8.10
2023-03-12T00:45:17.428Z,7.70
2023-03-12T00:45:29.200Z,7.10
2023-03-12T00:45:39.980Z,6.90
2023-03-12T00:45:51.689Z,7.00
2023-03-12T00:46:04.649Z,7.50
2023-03-12T00:46:15.446Z,7.70
2023-03-12T00:46:27.928Z,7.40
2023-03-12T00:46:38.740Z,7.00
2023-03-12T00:46:50.481Z,7.10
2023-03-12T00:47:03.438Z,7.40
2023-03-12T00:47:15.909Z,8.00
2023-03-12T00:47:26.709Z,8.50
2023-03-12T00:47:39.183Z,8.70
2023-03-12T00:47:49.971Z,8.20
2023-03-12T00:48:02.452Z,8.70
2023-03-12T00:48:15.657Z,8.30
2023-03-12T00:48:27.631Z,8.00
2023-03-12T00:48:38.395Z,7.40
2023-03-12T00:48:49.138Z,7.50
2023-03-12T00:49:02.355Z,7.40
2023-03-12T00:49:15.148Z,7.40
2023-03-12T00:49:26.932Z,7.80
2023-03-12T00:49:38.688Z,7.90
2023-03-12T00:49:50.428Z,7.90
2023-03-12T00:50:03.670Z,7.70
2023-03-12T00:50:16.100Z,8.20
2023-03-12T00:50:26.872Z,8.20
2023-03-12T00:50:37.611Z,8.00
2023-03-12T00:50:50.090Z,8.30
2023-03-12T00:51:01.813Z,8.60
2023-03-12T00:51:12.601Z,8.30
2023-03-12T00:51:25.590Z,8.00
2023-03-12T00:51:39.736Z,7.70
2023-03-12T00:51:50.528Z,8.50
2023-03-12T00:52:02.839Z,8.90
2023-03-12T00:52:14.573Z,8.40
2023-03-12T00:52:25.308Z,8.40
2023-03-12T00:52:37.056Z,8.50
2023-03-12T00:52:47.841Z,8.40
2023-03-12T00:53:00.273Z,8.20
2023-03-12T00:53:11.082Z,9.10
2023-03-12T00:53:23.851Z,8.70
2023-03-12T00:53:34.613Z,8.10
2023-03-12T00:53:45.352Z,7.70
2023-03-12T00:53:58.063Z,7.70
2023-03-12T00:54:11.269Z,7.90
2023-03-12T00:54:22.025Z,8.60
2023-03-12T00:54:32.748Z,8.50
2023-03-12T00:54:43.495Z,8.90
2023-03-12T00:54:55.949Z,9.20
2023-03-12T00:55:06.730Z,9.20
2023-03-12T00:55:19.189Z,8.70
2023-03-12T00:55:31.147Z,8.70
2023-03-12T00:55:44.369Z,8.40
2023-03-12T00:55:56.844Z,8.50
2023-03-12T00:56:07.657Z,9.10
2023-03-12T00:56:18.442Z,9.40
2023-03-12T00:56:29.164Z,9.10
2023-03-12T00:56:41.686Z,8.30
2023-03-12T00:56:53.383Z,8.20
2023-03-12T00:57:05.577Z,7.80
2023-03-12T00:57:17.811Z,8.30
2023-03-12T00:57:31.553Z,8.60
2023-03-12T00:57:44.780Z,8.50
2023-03-12T00:57:56.479Z,8.40
2023-03-12T00:58:08.237Z,8.70
2023-03-12T00:58:19.958Z,8.20
2023-03-12T00:58:32.470Z,8.00
2023-03-12T00:58:44.869Z,7.70
2023-03-12T00:58:57.088Z,8.10
2023-03-12T00:59:09.802Z,8.30
2023-03-12T00:59:21.498Z,8.20
2023-03-12T00:59:35.269Z,8.80
2023-03-12T00:59:47.690Z,8.70
2023-03-12T00:59:59.458Z,8.10
2023-03-12T01:00:10.253Z,8.20
2023-03-12T01:00:21.996Z,8.20
2023-03-12T01:00:34.990Z,7.60
2023-03-12T01:00:48.195Z,7.70
2023-03-12T01:01:00.736Z,8.10
2023-03-12T01:01:12.824Z,8.40
2023-03-12T01:01:24.559Z,8.60
2023-03-12T01:01:37.289Z,8.40
2023-03-12T01:01:49.031Z,8.10
2023-03-12T01:01:59.876Z,8.30
2023-03-12T01:02:12.840Z,8.40
2023-03-12T01:02:24.809Z,8.10
2023-03-12T01:02:36.534Z,7.60
2023-03-12T01:02:48.970Z,7.70
2023-03-12T01:03:00.699Z,8.20
2023-03-12T01:03:11.529Z,8.20
2023-03-12T01:03:22.262Z,7.90
2023-03-12T01:03:33.036Z,8.00
2023-03-12T01:03:43.859Z,8.00
2023-03-12T01:03:54.753Z,8.00
2023-03-12T01:04:06.571Z,8.40
2023-03-12T01:04:17.384Z,8.50
2023-03-12T01:04:28.250Z,8.00
2023-03-12T01:04:40.049Z,8.30
2023-03-12T01:04:53.793Z,8.20
2023-03-12T01:05:05.521Z,8.00
2023-03-12T01:05:17.281Z,8.40
2023-03-12T01:05:28.081Z,8.80
2023-03-12T01:05:39.841Z,8.30
2023-03-12T01:05:52.394Z,8.60
2023-03-12T01:06:04.132Z,8.90
2023-03-12T01:06:17.397Z,8.70
2023-03-12T01:06:29.862Z,8.10
2023-03-12T01:06:40.643Z,8.40
2023-03-12T01:06:51.393Z,8.60
2023-03-12T01:07:03.893Z,8.20
2023-03-12T01:07:15.641Z,8.50
2023-03-12T01:07:26.664Z,8.50
2023-03-12T01:07:39.115Z,8.60
2023-03-12T01:07:49.964Z,8.50
2023-03-12T01:08:02.023Z,8.10
2023-03-12T01:08:13.813Z,8.40
2023-03-12T01:08:27.068Z,8.70
2023-03-12T01:08:38.764Z,8.90
2023-03-12T01:08:51.250Z,9.30
2023-03-12T01:09:03.444Z,9.00
2023-03-12T01:09:16.424Z,8.90
2023-03-12T01:09:28.148Z,8.60
2023-03-12T01:09:40.655Z,8.80
2023-03-12T01:09:54.384Z,8.90
2023-03-12T01:10:06.110Z,9.00
2023-03-12T01:10:18.563Z,8.40
2023-03-12T01:10:31.013Z,9.00
2023-03-12T01:10:43.753Z,8.60
2023-03-12T01:10:54.529Z,8.00
2023-03-12T01:11:06.533Z,7.90
2023-03-12T01:11:17.344Z,8.30
2023-03-12T01:11:29.802Z,8.30
2023-03-12T01:11:42.023Z,7.90
2023-03-12T01:11:54.474Z,8.30
2023-03-12T01:12:05.304Z,9.10
2023-03-12T01:12:16.115Z,10.10
2023-03-12T01:12:29.281Z,9.80
2023-03-12T01:12:40.327Z,9.60
2023-03-12T01:12:52.564Z,9.30
2023-03-12T01:13:05.004Z,9.80
2023-03-12T01:13:16.780Z,9.60
2023-03-12T01:13:27.524Z,8.60
2023-03-12T01:13:38.293Z,9.10
2023-03-12T01:13:49.024Z,10.10
2023-03-12T01:14:01.552Z,10.20
2023-03-12T01:14:14.096Z,10.90
2023-03-12T01:14:26.371Z,11.30
2023-03-12T01:14:39.340Z,11.30
2023-03-12T01:14:52.108Z,12.50
2023-03-12T01:15:02.868Z,13.80
2023-03-12T01:15:14.636Z,12.20
2023-03-12T01:15:25.468Z,10.10
2023-03-12T01:15:36.337Z,9.30
2023-03-12T01:15:48.081Z,9.60
2023-03-12T01:15:58.920Z,9.50
2023-03-12T01:16:11.513Z,9.50
2023-03-12T01:16:24.030Z,9.70
2023-03-12T01:16:34.924Z,10.60
2023-03-12T01:16:46.725Z,11.40
2023-03-12T01:16:59.210Z,13.10
2023-03-12T01:17:09.968Z,15.50
2023-03-12T01:17:22.438Z,16.70
2023-03-12T01:17:34.256Z,16.00
2023-03-12T01:17:45.039Z,13.90
2023-03-12T01:17:55.820Z,12.20
2023-03-12T01:18:07.536Z,12.10
2023-03-12T01:18:19.976Z,11.50
2023-03-12T01:18:30.739Z,12.30
2023-03-12T01:18:42.505Z,12.10
2023-03-12T01:18:54.951Z,11.80
2023-03-12T01:19:06.649Z,10.50
2023-03-12T01:19:17.395Z,9.30
2023-03-12T01:19:28.137Z,8.90
2023-03-12T01:19:40.601Z,8.90
2023-03-12T01:19:51.471Z,9.10
2023-03-12T01:20:03.214Z,9.40
2023-03-12T01:20:16.471Z,9.30
2023-03-12T01:20:28.423Z,8.60
2023-03-12T01:20:40.245Z,8.70
2023-03-12T01:20:52.238Z,9.50
2023-03-12T01:21:03.027Z,9.80
2023-03-12T01:21:13.786Z,9.90
2023-03-12T01:21:25.787Z,9.70
2023-03-12T01:21:36.558Z,10.50
2023-03-12T01:21:50.385Z,10.90
2023-03-12T01:22:02.158Z,11.20
2023-03-12T01:22:14.645Z,11.40
2023-03-12T01:22:26.369Z,10.60
2023-03-12T01:22:38.837Z,10.30
2023-03-12T01:22:52.067Z,10.20
2023-03-12T01:23:03.835Z,10.40
2023-03-12T01:23:14.565Z,10.70
2023-03-12T01:23:25.375Z,11.10
2023-03-12T01:23:36.126Z,10.80
2023-03-12T01:23:46.892Z,10.50
2023-03-12T01:23:58.651Z,11.70
2023-03-12T01:24:10.425Z,12.80
2023-03-12T01:24:21.191Z,12.90
2023-03-12T01:24:33.678Z,12.10
2023-03-12T01:24:45.417Z,11.40
2023-03-12T01:24:57.718Z,12.50
2023-03-12T01:25:08.472Z,13.50
2023-03-12T01:25:20.197Z,13.90
2023-03-12T01:25:33.173Z,13.70
2023-03-12T01:25:46.424Z,13.80
2023-03-12T01:25:58.178Z,13.90
2023-03-12T01:26:10.696Z,14.70
2023-03-12T01:26:24.432Z,13.90
2023-03-12T01:26:36.637Z,12.80
2023-03-12T01:26:48.400Z,12.00
2023-03-12T01:27:00.936Z,11.50
2023-03-12T01:27:12.784Z,12.70
2023-03-12T01:27:25.269Z,13.30
2023-03-12T01:27:38.217Z,14.60
2023-03-12T01:27:50.675Z,16.00
2023-03-12T01:28:03.898Z,15.60
2023-03-12T01:28:14.672Z,14.30
2023-03-12T01:28:26.917Z,13.60
2023-03-12T01:28:38.655Z,13.50
2023-03-12T01:28:51.134Z,13.40
2023-03-12T01:29:03.598Z,13.50
2023-03-12T01:29:16.812Z,13.30
2023-03-12T01:29:28.532Z,13.80
2023-03-12T01:29:39.290Z,14.40
2023-03-12T01:29:50.068Z,15.00
2023-03-12T01:30:02.291Z,13.80
2023-03-12T01:30:14.056Z,12.90
2023-03-12T01:30:26.507Z,13.10
2023-03-12T01:30:39.499Z,14.00
2023-03-12T01:30:51.270Z,14.70
2023-03-12T01:31:03.547Z,15.10
2023-03-12T01:31:15.413Z,14.20
2023-03-12T01:31:27.703Z,14.00
2023-03-12T01:31:39.484Z,13.70
2023-03-12T01:31:51.798Z,14.60
2023-03-12T01:32:05.011Z,14.30
2023-03-12T01:32:19.188Z,13.70
2023-03-12T01:32:32.415Z,12.90
2023-03-12T01:32:43.227Z,12.80
2023-03-12T01:32:54.034Z,13.80
2023-03-12T01:33:06.517Z,14.30
2023-03-12T01:33:18.247Z,14.00
2023-03-12T01:33:30.007Z,13.10
2023-03-12T01:33:42.217Z,13.10
2023-03-12T01:33:53.009Z,13.20
2023-03-12T01:34:04.738Z,13.20
2023-03-12T01:34:15.485Z,12.60
2023-03-12T01:34:27.450Z,12.40
2023-03-12T01:34:40.675Z,13.20
2023-03-12T01:34:52.699Z,12.40
2023-03-12T01:35:03.439Z,11.80
2023-03-12T01:35:14.248Z,11.70
2023-03-12T01:35:26.769Z,11.60
2023-03-12T01:35:37.804Z,11.30
2023-03-12T01:35:48.681Z,10.60
2023-03-12T01:35:59.675Z,10.00
2023-03-12T01:36:10.559Z,10.00
2023-03-12T01:36:21.347Z,10.20
2023-03-12T01:36:33.096Z,10.60
2023-03-12T01:36:43.875Z,10.20
2023-03-12T01:36:56.326Z,10.40
2023-03-12T01:37:08.548Z,9.80
2023-03-12T01:37:19.335Z,9.40
2023-03-12T01:37:31.859Z,9.00
2023-03-12T01:37:43.728Z,9.60
2023-03-12T01:37:54.568Z,9.20
2023-03-12T01:38:05.355Z,9.30
2023-03-12T01:38:17.114Z,9.50
2023-03-12T01:38:27.915Z,10.10
2023-03-12T01:38:39.668Z,9.80
2023-03-12T01:38:50.466Z,9.40
2023-03-12T01:39:02.696Z,9.00
2023-03-12T01:39:14.405Z,9.60
2023-03-12T01:39:26.625Z,9.80
2023-03-12T01:39:37.425Z,9.40
2023-03-12T01:39:49.871Z,9.40
2023-03-12T01:40:02.146Z,9.40
2023-03-12T01:40:13.863Z,9.50
2023-03-12T01:40:25.816Z,9.10
2023-03-12T01:40:37.550Z,9.40
2023-03-12T01:40:50.808Z,9.20
2023-03-12T01:41:02.585Z,8.50
2023-03-12T01:41:14.384Z,8.80
2023-03-12T01:41:25.127Z,8.90
2023-03-12T01:41:36.875Z,8.80
2023-03-12T01:41:47.657Z,9.20
2023-03-12T01:41:58.441Z,9.30
2023-03-12T01:42:10.183Z,9.30
2023-03-12T01:42:21.918Z,10.10
2023-03-12T01:42:32.690Z,10.10
2023-03-12T01:42:43.505Z,9.40
2023-03-12T01:42:56.010Z,9.20
2023-03-12T01:43:06.745Z,8.50
2023-03-12T01:43:17.543Z,8.80
2023-03-12T01:43:29.997Z,9.30
2023-03-12T01:43:40.772Z,9.80
2023-03-12T01:43:52.526Z,9.70
2023-03-12T01:44:03.283Z,9.20
2023-03-12T01:44:15.596Z,8.70
2023-03-12T01:44:26.332Z,9.10
2023-03-12T01:44:37.184Z,10.10
2023-03-12T01:44:49.832Z,10.20
2023-03-12T01:45:04.929Z,9.60
2023-03-12T01:45:17.384Z,9.40
2023-03-12T01:45:29.027Z,9.30
2023-03-12T01:45:39.824Z,9.20
2023-03-12T01:45:51.644Z,9.00
2023-03-12T01:46:04.962Z,8.60
2023-03-12T01:46:16.033Z,8.70
2023-03-12T01:46:27.762Z,9.30
2023-03-12T01:46:38.507Z,9.80
2023-03-12T01:46:50.725Z,9.80
2023-03-12T01:47:01.507Z,9.90
2023-03-12T01:47:14.735Z,9.30
2023-03-12T01:47:26.475Z,9.00
2023-03-12T01:47:38.953Z,9.00
2023-03-12T01:47:49.766Z,8.90
2023-03-12T01:48:02.724Z,9.30
2023-03-12T01:48:14.760Z,9.50
2023-03-12T01:48:27.252Z,9.90
2023-03-12T01:48:38.982Z,9.20
2023-03-12T01:48:50.683Z,9.60
2023-03-12T01:49:02.464Z,9.80
2023-03-12T01:49:13.220Z,9.80
2023-03-12T01:49:24.999Z,9.20
2023-03-12T01:49:37.221Z,8.60
2023-03-12T01:49:49.453Z,8.50
2023-03-12T01:50:01.925Z,9.00
2023-03-12T01:50:16.226Z,8.90
2023-03-12T01:50:28.685Z,8.60
2023-03-12T01:50:40.438Z,8.70
2023-03-12T01:50:51.256Z,9.10
2023-03-12T01:51:03.004Z,9.30
2023-03-12T01:51:13.858Z,9.10
2023-03-12T01:51:24.637Z,8.70
2023-03-12T01:51:36.373Z,9.10
2023-03-12T01:51:47.161Z,8.50
2023-03-12T01:51:58.902Z,8.30
2023-03-12T01:52:09.639Z,8.50
2023-03-12T01:52:23.974Z,8.90
2023-03-12T01:52:36.437Z,8.80
2023-03-12T01:52:47.213Z,8.50
2023-03-12T01:52:58.109Z,9.20
2023-03-12T01:53:10.534Z,9.30
2023-03-12T01:53:21.325Z,9.30
2023-03-12T01:53:33.043Z,8.60
2023-03-12T01:53:44.761Z,8.10
2023-03-12T01:53:57.196Z,7.80
2023-03-12T01:54:09.914Z,8.50
2023-03-12T01:54:22.855Z,8.40
2023-03-12T01:54:34.670Z,7.90
2023-03-12T01:54:45.435Z,7.40
2023-03-12T01:54:57.144Z,7.70
2023-03-12T01:55:09.644Z,7.50
2023-03-12T01:55:21.374Z,8.10
2023-03-12T01:55:33.868Z,8.70
2023-03-12T01:55:46.123Z,8.70
2023-03-12T01:55:57.830Z,9.30
2023-03-12T01:56:09.592Z,8.30
2023-03-12T01:56:20.353Z,8.20
2023-03-12T01:56:33.129Z,8.70
2023-03-12T01:56:45.892Z,8.90
2023-03-12T01:56:58.138Z,8.90
2023-03-12T01:57:08.880Z,8.30
2023-03-12T01:57:21.093Z,8.20
2023-03-12T01:57:34.831Z,8.10
2023-03-12T01:57:47.307Z,8.60
2023-03-12T01:57:59.082Z,8.80
2023-03-12T01:58:11.549Z,8.70
2023-03-12T01:58:23.292Z,8.20
2023-03-12T01:58:35.042Z,8.40
2023-03-12T01:58:47.324Z,8.40
2023-03-12T01:58:59.112Z,8.90
2023-03-12T01:59:09.924Z,9.00
2023-03-12T01:59:20.679Z,8.70
2023-03-12T01:59:32.935Z,9.20
2023-03-12T01:59:44.676Z,8.70
2023-03-12T01:59:56.404Z,8.50
2023-03-12T02:00:07.162Z,8.40
2023-03-12T02:00:20.395Z,8.30
2023-03-12T02:00:31.258Z,7.70
2023-03-12T02:00:43.025Z,7.90
2023-03-12T02:00:54.854Z,8.30
2023-03-12T02:01:07.367Z,8.80
2023-03-12T02:01:20.274Z,8.00
2023-03-12T02:01:31.092Z,8.50
2023-03-12T02:01:42.854Z,8.20
2023-03-12T02:01:54.865Z,8.50
2023-03-12T02:02:06.822Z,8.60
2023-03-12T02:02:17.630Z,8.80
2023-03-12T02:02:28.461Z,8.70
2023-03-12T02:02:40.418Z,8.50
2023-03-12T02:02:52.176Z,8.80
2023-03-12T02:03:04.614Z,8.70
2023-03-12T02:03:15.385Z,8.20
2023-03-12T02:03:26.135Z,8.70
2023-03-12T02:03:38.637Z,8.80
2023-03-12T02:03:50.432Z,8.80
2023-03-12T02:04:02.206Z,8.00
2023-03-12T02:04:14.044Z,8.00
2023-03-12T02:04:24.874Z,8.30
2023-03-12T02:04:36.581Z,7.80
2023-03-12T02:04:47.384Z,7.80
2023-03-12T02:04:58.214Z,7.90
2023-03-12T02:05:10.967Z,8.10
2023-03-12T02:05:23.950Z,8.60
2023-03-12T02:05:34.746Z,8.60
2023-03-12T02:05:47.304Z,7.80
2023-03-12T02:05:59.796Z,7.40
2023-03-12T02:06:12.009Z,7.40
2023-03-12T02:06:22.820Z,8.10
2023-03-12T02:06:33.554Z,8.10
2023-03-12T02:06:46.503Z,9.00
2023-03-12T02:06:57.305Z,8.80
2023-03-12T02:07:10.037Z,8.30
2023-03-12T02:07:20.940Z,8.20
2023-03-12T02:07:31.694Z,7.80
2023-03-12T02:07:42.495Z,8.50
2023-03-12T02:07:53.284Z,8.40
2023-03-12T02:08:05.060Z,9.00
2023-03-12T02:08:15.812Z,8.90
2023-03-12T02:08:26.593Z,8.80
2023-03-12T02:08:38.318Z,8.50
2023-03-12T02:08:51.025Z,8.80
2023-03-12T02:09:03.763Z,8.30
2023-03-12T02:09:15.751Z,8.70
2023-03-12T02:09:26.520Z,9.40
2023-03-12T02:09:37.343Z,9.00
2023-03-12T02:09:49.081Z,9.20
2023-03-12T02:09:59.844Z,8.50
2023-03-12T02:10:12.816Z,8.30
2023-03-12T02:10:23.627Z,8.20
2023-03-12T02:10:34.425Z,8.50
2023-03-12T02:10:45.232Z,8.30
2023-03-12T02:10:56.002Z,7.90
2023-03-12T02:11:09.209Z,8.20
2023-03-12T02:11:20.972Z,8.80
2023-03-12T02:11:31.754Z,8.20
2023-03-12T02:11:44.005Z,8.20
2023-03-12T02:11:54.804Z,8.00
2023-03-12T02:12:07.282Z,8.20
2023-03-12T02:12:19.017Z,8.20
2023-03-12T02:12:31.467Z,8.50
2023-03-12T02:12:43.207Z,8.60
2023-03-12T02:12:53.974Z,8.20
2023-03-12T02:13:06.486Z,8.50
2023-03-12T02:13:19.713Z,8.10
2023-03-12T02:13:31.454Z,8.00
2023-03-12T02:13:43.404Z,8.60
2023-03-12T02:13:56.653Z,8.80
2023-03-12T02:14:09.179Z,8.60
2023-03-12T02:14:20.949Z,7.90
2023-03-12T02:14:33.183Z,7.70
2023-03-12T02:14:43.998Z,8.20
2023-03-12T02:14:54.724Z,8.50
2023-03-12T02:15:05.466Z,8.70
2023-03-12T02:15:16.226Z,8.90
2023-03-12T02:15:28.471Z,8.80
2023-03-12T02:15:39.255Z,8.90
2023-03-12T02:15:52.467Z,8.50
2023-03-12T02:16:05.089Z,8.80
2023-03-12T02:16:17.431Z,8.80
2023-03-12T02:16:30.221Z,8.10
2023-03-12T02:16:42.680Z,8.40
2023-03-12T02:16:54.446Z,8.70
2023-03-12T02:17:07.184Z,8.40
2023-03-12T02:17:19.423Z,8.50
2023-03-12T02:17:31.392Z,8.40
2023-03-12T02:17:42.174Z,8.50
2023-03-12T02:17:54.489Z,8.50
2023-03-12T02:18:06.989Z,8.20
2023-03-12T02:18:19.225Z,9.10
2023-03-12T02:18:29.997Z,9.20
2023-03-12T02:18:40.827Z,8.70
2023-03-12T02:18:51.606Z,8.40
2023-03-12T02:19:03.414Z,8.10
2023-03-12T02:19:15.154Z,7.90
2023-03-12T02:19:27.113Z,8.20
2023-03-12T02:19:39.627Z,8.50
2023-03-12T02:19:52.773Z,8.50
2023-03-12T02:20:03.578Z,9.30
2023-03-12T02:20:14.376Z,9.20
2023-03-12T02:20:26.163Z,9.30
2023-03-12T02:20:37.893Z,9.60
2023-03-12T02:20:49.890Z,8.80
2023-03-12T02:21:01.612Z,8.50
2023-03-12T02:21:13.316Z,8.50
2023-03-12T02:21:24.119Z,8.50
2023-03-12T02:21:37.119Z,8.90
2023-03-12T02:21:48.845Z,9.30
2023-03-12T02:22:02.132Z,9.10
2023-03-12T02:22:15.339Z,8.90
2023-03-12T02:22:26.106Z,8.70
2023-03-12T02:22:37.870Z,8.60
2023-03-12T02:22:49.601Z,9.10
2023-03-12T02:23:01.357Z,8.60
2023-03-12T02:23:13.816Z,8.70
2023-03-12T02:23:26.262Z,8.40
2023-03-12T02:23:38.799Z,8.10
2023-03-12T02:23:51.036Z,7.70
2023-03-12T02:24:02.787Z,7.90
2023-03-12T02:24:14.569Z,8.40
2023-03-12T02:24:26.361Z,8.70
2023-03-12T02:24:38.169Z,8.80
2023-03-12T02:24:49.900Z,8.70
2023-03-12T02:25:01.684Z,8.10
2023-03-12T02:25:13.931Z,7.90
2023-03-12T02:25:26.407Z,7.60
2023-03-12T02:25:38.156Z,7.70
2023-03-12T02:25:50.377Z,8.00
2023-03-12T02:26:02.121Z,8.60
2023-03-12T02:26:12.901Z,8.90
2023-03-12T02:26:25.370Z,8.90
2023-03-12T02:26:38.135Z,8.40
2023-03-12T02:26:48.902Z,8.60
2023-03-12T02:27:00.677Z,9.00
2023-03-12T02:27:12.406Z,8.50
2023-03-12T02:27:24.186Z,8.50
2023-03-12T02:27:35.033Z,8.90
2023-03-12T02:27:45.799Z,8.70
2023-03-12T02:27:58.022Z,9.20
2023-03-12T02:28:09.818Z,9.60
2023-03-12T02:28:21.608Z,9.50
2023-03-12T02:28:34.812Z,9.40
2023-03-12T02:28:45.579Z,8.90
2023-03-12T02:28:56.350Z,8.90
2023-03-12T02:29:08.810Z,8.50
2023-03-12T02:29:20.499Z,8.60
2023-03-12T02:29:32.986Z,8.60
2023-03-12T02:29:44.729Z,8.90
2023-03-12T02:29:57.234Z,8.50
2023-03-12T02:30:09.465Z,9.10
2023-03-12T02:30:21.700Z,9.50
2023-03-12T02:30:33.497Z,9.80
2023-03-12T02:30:46.303Z,9.60
2023-03-12T02:30:57.138Z,9.80
2023-03-12T02:31:09.368Z,9.80
2023-03-12T02:31:21.121Z,9.30
2023-03-12T02:31:32.940Z,9.50
2023-03-12T02:31:44.759Z,9.50
2023-03-12T02:31:55.677Z,9.90
2023-03-12T02:32:08.172Z,9.80
2023-03-12T02:32:21.003Z,9.70
2023-03-12T02:32:33.555Z,9.80
2023-03-12T02:32:45.280Z,9.80
2023-03-12T02:32:56.316Z,9.50
2023-03-12T02:33:08.065Z,9.50
2023-03-12T02:33:18.832Z,9.40
2023-03-12T02:33:29.598Z,10.20
2023-03-12T02:33:42.057Z,10.10
2023-03-12T02:33:53.824Z,10.10
2023-03-12T02:34:04.597Z,9.80
2023-03-12T02:34:16.354Z,10.20
2023-03-12T02:34:27.109Z,10.00
2023-03-12T02:34:38.860Z,10.20
2023-03-12T02:34:50.858Z,9.60
2023-03-12T02:35:01.630Z,10.10
2023-03-12T02:35:14.905Z,10.50
2023-03-12T02:35:28.029Z,10.20
2023-03-12T02:35:39.808Z,10.50
2023-03-12T02:35:52.835Z,10.30
2023-03-12T02:36:04.640Z,9.90
2023-03-12T02:36:15.408Z,10.40
2023-03-12T02:36:27.130Z,10.50
2023-03-12T02:36:39.387Z,10.40
2023-03-12T02:36:51.627Z,10.10
2023-03-12T02:37:03.387Z,10.20
2023-03-12T02:37:17.195Z,9.80
2023-03-12T02:37:27.919Z,9.90
2023-03-12T02:37:39.678Z,10.00